Time;durP1;ratioP1;P1;durP2;ratioP2;P2;SDS_P1;SDS_P2;PMS_P1;PMS_P2;Temp;Humidity;BMP_temperature;BMP_pressure;BME280_temperature;BME280_humidity;BME280_pressure;Samples;Min_cycle;Max_cycle;Signal;HPM_P1;HPM_P2
2022/12/23 00:01:02;;;;;;;30.30;19.05;;;8.30;99.90;;;;;;5090340;28;20118;-69
2022/12/23 00:03:29;;;;;;;31.13;18.77;;;8.30;99.90;;;;;;5090072;28;20062;-69
2022/12/23 00:05:54;;;;;;;29.20;17.42;;;8.30;99.90;;;;;;5125148;27;20554;-68
2022/12/23 00:08:21;;;;;;;35.00;16.88;;;8.30;99.90;;;;;;5089269;28;20078;-69
2022/12/23 00:10:48;;;;;;;31.77;17.08;;;8.30;99.90;;;;;;5091635;28;20055;-69
2022/12/23 00:16:07;;;;;;;31.73;16.95;;;8.40;99.90;;;;;;5091906;28;20035;-68
2022/12/23 00:18:33;;;;;;;51.20;17.83;;;8.30;99.90;;;;;;5091858;28;20394;-68
2022/12/23 00:21:04;;;;;;;100.35;18.33;;;8.30;99.90;;;;;;5091409;28;20043;-69
2022/12/23 00:23:34;;;;;;;51.77;17.53;;;8.30;99.90;;;;;;5089645;28;20042;-68
2022/12/23 00:26:01;;;;;;;47.50;16.98;;;8.30;99.90;;;;;;5090822;28;20494;-69
2022/12/23 00:28:28;;;;;;;36.53;15.93;;;8.30;99.90;;;;;;5090658;28;20043;-68
2022/12/23 00:30:58;;;;;;;48.40;16.25;;;8.30;99.90;;;;;;5091907;28;20503;-69
2022/12/23 00:33:27;;;;;;;63.25;16.95;;;8.20;99.90;;;;;;5123285;27;20177;-69
2022/12/23 00:35:53;;;;;;;91.70;17.70;;;8.20;99.90;;;;;;5124133;27;20047;-69
2022/12/23 00:43:49;;;;;;;191.70;20.35;;;8.20;99.90;;;;;;5085977;28;20044;-68
2022/12/23 00:46:15;;;;;;;107.85;17.27;;;8.20;99.90;;;;;;5106797;28;20058;-69
2022/12/23 00:51:25;;;;;;;169.88;19.83;;;8.20;99.90;;;;;;5089433;28;20118;-69
2022/12/23 00:53:51;;;;;;;151.48;18.13;;;8.10;99.90;;;;;;5090825;28;20130;-68
2022/12/23 00:56:16;;;;;;;263.15;21.58;;;8.20;99.90;;;;;;5089855;28;20031;-68
2022/12/23 00:58:42;;;;;;;183.70;20.13;;;8.20;99.90;;;;;;5090748;28;20119;-69
2022/12/23 01:06:36;;;;;;;158.52;19.55;;;8.20;99.90;;;;;;5091089;28;20062;-69
2022/12/23 01:09:01;;;;;;;128.55;19.30;;;8.20;99.90;;;;;;5076134;28;20680;-68
2022/12/23 01:11:27;;;;;;;118.35;19.05;;;8.20;99.90;;;;;;5093814;28;20435;-69
2022/12/23 01:13:53;;;;;;;249.63;20.15;;;8.20;99.90;;;;;;5094449;28;20047;-69
2022/12/23 01:16:18;;;;;;;101.70;18.08;;;8.20;99.90;;;;;;5093071;28;20073;-69
2022/12/23 01:18:45;;;;;;;87.85;19.00;;;8.20;99.90;;;;;;5094964;28;20075;-69
2022/12/23 01:21:11;;;;;;;71.97;18.83;;;8.20;99.90;;;;;;5095020;28;20075;-69
2022/12/23 01:23:37;;;;;;;67.85;17.27;;;8.20;99.90;;;;;;5076950;28;20039;-68
2022/12/23 01:26:04;;;;;;;78.72;17.38;;;8.30;99.90;;;;;;5094666;27;20056;-68
2022/12/23 01:28:31;;;;;;;60.85;16.40;;;8.30;99.90;;;;;;5095781;28;20046;-69
2022/12/23 01:30:59;;;;;;;47.13;16.02;;;8.30;99.90;;;;;;5094670;28;20031;-69
2022/12/23 01:33:25;;;;;;;42.70;15.18;;;8.30;99.90;;;;;;5128745;27;20638;-69
2022/12/23 01:35:51;;;;;;;38.88;14.82;;;8.30;99.90;;;;;;5094662;28;20036;-69
2022/12/23 01:38:16;;;;;;;37.78;14.38;;;8.30;99.90;;;;;;5093649;27;20043;-69
2022/12/23 01:40:44;;;;;;;36.60;15.15;;;8.30;99.90;;;;;;5094756;28;20043;-69
2022/12/23 01:43:17;;;;;;;37.15;15.07;;;8.30;99.90;;;;;;5090866;28;20083;-68
2022/12/23 01:45:44;;;;;;;33.53;14.80;;;8.30;99.90;;;;;;5094853;28;20493;-69
2022/12/23 01:48:18;;;;;;;35.75;14.50;;;8.30;99.90;;;;;;5094065;27;20136;-69
2022/12/23 01:50:53;;;;;;;36.20;15.35;;;8.30;99.90;;;;;;5095857;28;20490;-68
2022/12/23 01:53:27;;;;;;;37.55;15.35;;;8.30;99.90;;;;;;5094569;28;20046;-68
2022/12/23 01:56:02;;;;;;;29.00;13.32;;;8.30;99.90;;;;;;5092784;27;20047;-68
2022/12/23 01:58:45;;;;;;;33.53;14.30;;;8.30;99.90;;;;;;5094347;28;20406;-69
2022/12/23 02:03:58;;;;;;;30.60;13.27;;;8.30;99.90;;;;;;5094532;28;20039;-69
2022/12/23 02:09:25;;;;;;;30.38;13.93;;;8.30;99.90;;;;;;5093500;28;20127;-69
2022/12/23 02:12:23;;;;;;;31.85;14.65;;;8.30;99.90;;;;;;5093276;28;20035;-68
2022/12/23 02:18:09;;;;;;;25.08;13.23;;;8.20;99.90;;;;;;5092529;28;20460;-68
2022/12/23 02:20:37;;;;;;;27.70;14.02;;;8.20;99.90;;;;;;5092370;27;20109;-69
2022/12/23 02:23:31;;;;;;;27.23;13.65;;;8.20;99.90;;;;;;5127928;27;20096;-69
2022/12/23 02:26:17;;;;;;;25.17;12.77;;;8.20;99.90;;;;;;5076217;28;20058;-69
2022/12/23 02:29:11;;;;;;;24.10;12.93;;;8.20;99.90;;;;;;5093808;28;20504;-68
2022/12/23 02:32:03;;;;;;;22.67;12.05;;;8.20;99.90;;;;;;5093093;28;20402;-68
2022/12/23 02:34:39;;;;;;;21.30;12.00;;;8.10;99.90;;;;;;5066146;28;20084;-68
2022/12/23 02:37:46;;;;;;;22.17;12.05;;;8.10;99.90;;;;;;5124468;27;20113;-69
2022/12/23 02:40:28;;;;;;;24.80;12.93;;;8.10;99.90;;;;;;5031315;28;20629;-68
2022/12/23 02:43:16;;;;;;;21.92;12.55;;;8.10;99.90;;;;;;5063476;28;20056;-69
2022/12/23 02:46:31;;;;;;;23.67;12.68;;;8.10;99.90;;;;;;5031867;28;20060;-68
2022/12/23 02:49:15;;;;;;;21.17;11.63;;;8.10;99.90;;;;;;5010887;28;20111;-69
2022/12/23 02:51:48;;;;;;;20.90;11.52;;;8.10;99.90;;;;;;5011898;28;20045;-68
2022/12/23 02:54:18;;;;;;;18.35;10.70;;;8.00;99.90;;;;;;4995536;28;20073;-69
2022/12/23 02:56:48;;;;;;;20.85;11.50;;;8.00;99.90;;;;;;5011632;28;20075;-68
2022/12/23 02:59:21;;;;;;;20.73;11.90;;;8.00;99.90;;;;;;5010224;28;20052;-68
2022/12/23 03:01:49;;;;;;;22.35;11.80;;;8.00;99.90;;;;;;5011927;28;20421;-69
2022/12/23 03:04:14;;;;;;;21.17;12.35;;;8.00;99.90;;;;;;5009956;28;20057;-68
2022/12/23 03:06:47;;;;;;;19.70;11.65;;;8.00;99.90;;;;;;5044368;28;20049;-69
2022/12/23 03:09:22;;;;;;;20.10;11.68;;;8.00;99.90;;;;;;5026467;28;20038;-68
2022/12/23 03:11:57;;;;;;;19.90;11.48;;;8.00;99.90;;;;;;5011084;28;20103;-69
2022/12/23 03:14:50;;;;;;;22.20;13.13;;;7.90;99.90;;;;;;4992935;28;20294;-69
2022/12/23 03:17:42;;;;;;;21.83;12.35;;;7.90;99.90;;;;;;5031728;28;20087;-68
2022/12/23 03:20:20;;;;;;;26.90;14.00;;;7.80;99.90;;;;;;5047140;28;20215;-69
2022/12/23 03:23:02;;;;;;;30.13;13.82;;;7.90;99.90;;;;;;5051015;28;20499;-69
2022/12/23 03:25:52;;;;;;;26.40;13.80;;;7.80;99.90;;;;;;5077322;28;22265;-69
2022/12/23 03:28:40;;;;;;;29.98;14.93;;;7.80;99.90;;;;;;5092427;28;20081;-69
2022/12/23 03:31:12;;;;;;;34.67;15.80;;;7.80;99.90;;;;;;5092410;28;20036;-68
2022/12/23 03:33:42;;;;;;;34.85;15.77;;;7.80;99.90;;;;;;5125806;27;20077;-69
2022/12/23 03:36:24;;;;;;;34.53;15.88;;;7.80;99.90;;;;;;5092297;28;20043;-69
2022/12/23 03:38:53;;;;;;;37.43;16.80;;;7.80;99.90;;;;;;5092409;28;20140;-68
2022/12/23 03:41:26;;;;;;;31.70;15.82;;;7.80;99.90;;;;;;5091511;28;20032;-69
2022/12/23 03:43:57;;;;;;;36.80;17.00;;;7.80;99.90;;;;;;5092336;28;20063;-69
2022/12/23 03:46:33;;;;;;;35.78;16.83;;;7.80;99.90;;;;;;5125053;27;20047;-69
2022/12/23 03:49:10;;;;;;;39.75;18.15;;;7.80;99.90;;;;;;5126345;27;20066;-68
2022/12/23 03:51:47;;;;;;;42.85;18.58;;;7.80;99.90;;;;;;5125928;27;20114;-69
2022/12/23 03:54:23;;;;;;;40.80;18.40;;;7.80;99.90;;;;;;5091182;28;20379;-69
2022/12/23 03:57:00;;;;;;;40.08;18.02;;;7.80;99.90;;;;;;5093013;28;20069;-69
2022/12/23 03:59:30;;;;;;;46.55;18.63;;;7.80;99.90;;;;;;5092272;28;20513;-69
2022/12/23 04:02:28;;;;;;;39.28;18.13;;;7.80;99.90;;;;;;5090371;28;20040;-69
2022/12/23 04:05:03;;;;;;;38.20;17.40;;;7.80;99.90;;;;;;5124627;27;20058;-68
2022/12/23 04:07:55;;;;;;;41.47;17.45;;;7.80;99.90;;;;;;5073545;28;20044;-69
2022/12/23 04:10:21;;;;;;;38.90;17.87;;;7.70;99.90;;;;;;5086607;28;20430;-69
2022/12/23 04:12:48;;;;;;;44.90;17.98;;;7.70;99.90;;;;;;5069331;28;20051;-69
2022/12/23 04:15:21;;;;;;;42.58;17.35;;;7.70;99.90;;;;;;5069270;28;20078;-68
2022/12/23 04:17:48;;;;;;;39.83;17.48;;;7.70;99.90;;;;;;5069353;28;20048;-68
2022/12/23 04:20:14;;;;;;;41.28;17.90;;;7.70;99.90;;;;;;5070447;28;20052;-68
2022/12/23 04:22:42;;;;;;;45.35;18.50;;;7.70;99.90;;;;;;5069611;28;20170;-68
2022/12/23 04:25:08;;;;;;;42.70;17.35;;;7.70;99.90;;;;;;5070359;28;20122;-69
2022/12/23 04:27:34;;;;;;;43.55;18.23;;;7.70;99.90;;;;;;5064146;28;20549;-68
2022/12/23 04:30:00;;;;;;;40.92;17.48;;;7.70;99.90;;;;;;5053139;28;20052;-69
2022/12/23 04:32:25;;;;;;;42.97;17.33;;;7.60;99.90;;;;;;5069441;28;20048;-69
2022/12/23 04:34:51;;;;;;;40.33;16.92;;;7.70;99.90;;;;;;5067483;28;20060;-68
2022/12/23 04:37:17;;;;;;;39.00;17.42;;;7.60;99.90;;;;;;5069431;28;20043;-68
2022/12/23 04:39:42;;;;;;;39.63;17.52;;;7.70;99.90;;;;;;5103564;28;20085;-68
2022/12/23 04:42:08;;;;;;;36.80;16.90;;;7.70;99.90;;;;;;5071615;28;20040;-68
2022/12/23 04:44:34;;;;;;;40.45;17.13;;;7.60;99.90;;;;;;5074968;28;20040;-69
2022/12/23 04:46:59;;;;;;;39.17;17.67;;;7.60;99.90;;;;;;5081703;28;20131;-69
2022/12/23 04:49:25;;;;;;;39.20;17.95;;;7.70;99.90;;;;;;5093527;28;20043;-68
2022/12/23 04:51:50;;;;;;;37.80;16.70;;;7.70;99.90;;;;;;5094647;28;20391;-68
2022/12/23 04:54:16;;;;;;;37.88;16.90;;;7.70;99.90;;;;;;5095447;28;20479;-69
2022/12/23 04:56:42;;;;;;;36.90;16.77;;;7.70;99.90;;;;;;5092229;27;20035;-69
2022/12/23 04:59:09;;;;;;;101.00;19.13;;;7.70;99.90;;;;;;5094761;28;20074;-69
2022/12/23 05:01:35;;;;;;;92.25;18.17;;;7.60;99.90;;;;;;5095446;28;20041;-69
2022/12/23 05:04:00;;;;;;;268.08;20.45;;;7.60;99.90;;;;;;5076736;28;20048;-68
2022/12/23 05:06:26;;;;;;;59.83;19.00;;;7.50;99.90;;;;;;5095297;28;20134;-69
2022/12/23 05:08:51;;;;;;;117.15;19.90;;;7.50;99.90;;;;;;5093342;28;20075;-69
2022/12/23 05:11:17;;;;;;;47.40;17.73;;;7.40;99.90;;;;;;5095544;28;20035;-69
2022/12/23 05:13:43;;;;;;;37.85;16.90;;;7.40;99.90;;;;;;5094824;28;20066;-69
2022/12/23 05:16:08;;;;;;;100.93;18.92;;;7.40;99.90;;;;;;5093705;28;20424;-69
2022/12/23 05:18:34;;;;;;;35.47;15.55;;;7.40;99.90;;;;;;5095129;28;20488;-68
2022/12/23 05:21:00;;;;;;;41.13;17.90;;;7.40;99.90;;;;;;5095292;28;20042;-69
2022/12/23 05:23:25;;;;;;;34.53;16.23;;;7.50;99.90;;;;;;5094964;28;20052;-69
2022/12/23 05:25:52;;;;;;;37.95;15.90;;;7.40;99.90;;;;;;5090166;27;20069;-69
2022/12/23 05:28:18;;;;;;;47.92;16.58;;;7.50;99.90;;;;;;5089349;28;20051;-69
2022/12/23 05:30:44;;;;;;;47.78;15.77;;;7.50;99.90;;;;;;5095390;28;20043;-68
2022/12/23 05:33:09;;;;;;;52.08;17.58;;;7.50;99.90;;;;;;5095108;28;20040;-69
2022/12/23 05:35:35;;;;;;;56.38;16.90;;;7.50;99.90;;;;;;5094286;28;20023;-69
2022/12/23 05:38:02;;;;;;;51.63;16.75;;;7.50;99.90;;;;;;5093725;28;20068;-69
2022/12/23 05:40:28;;;;;;;71.88;16.65;;;7.50;99.90;;;;;;5094911;28;20486;-69
2022/12/23 05:42:54;;;;;;;174.85;18.27;;;7.50;99.90;;;;;;5093411;28;20092;-70
2022/12/23 05:45:20;;;;;;;163.52;18.20;;;7.50;99.90;;;;;;5077616;28;20047;-69
2022/12/23 05:47:45;;;;;;;52.28;16.17;;;7.50;99.90;;;;;;5093745;28;20035;-69
2022/12/23 05:50:11;;;;;;;77.32;16.75;;;7.50;99.90;;;;;;5094682;28;20039;-69
2022/12/23 05:52:37;;;;;;;45.58;15.10;;;7.50;99.90;;;;;;5093776;28;20066;-68
2022/12/23 05:55:04;;;;;;;52.67;15.98;;;7.50;99.90;;;;;;5094408;28;20406;-69
2022/12/23 05:57:31;;;;;;;46.72;15.88;;;7.50;99.90;;;;;;5126407;27;20036;-68
2022/12/23 05:59:57;;;;;;;51.92;14.85;;;7.60;99.90;;;;;;5127526;27;20416;-69
2022/12/23 06:02:23;;;;;;;46.97;16.38;;;7.50;99.90;;;;;;5093594;28;20028;-69
2022/12/23 06:04:48;;;;;;;45.22;15.70;;;7.50;99.90;;;;;;5093949;28;20032;-69
2022/12/23 06:07:15;;;;;;;38.63;15.90;;;7.60;99.90;;;;;;5093934;27;20433;-69
2022/12/23 06:09:40;;;;;;;44.85;15.48;;;7.60;99.90;;;;;;5093106;28;20051;-69
2022/12/23 06:12:06;;;;;;;40.55;14.80;;;7.60;99.90;;;;;;5092308;28;20109;-69
2022/12/23 06:14:32;;;;;;;41.42;14.82;;;7.60;99.90;;;;;;5093761;28;20088;-69
2022/12/23 06:16:57;;;;;;;38.75;15.35;;;7.60;99.90;;;;;;5090501;28;20063;-69
2022/12/23 06:19:23;;;;;;;44.72;15.25;;;7.60;99.90;;;;;;5091461;28;20043;-69
2022/12/23 06:21:49;;;;;;;89.20;16.30;;;7.70;99.90;;;;;;5074805;27;20039;-69
2022/12/23 06:24:14;;;;;;;176.52;16.90;;;7.60;99.90;;;;;;5092354;27;20036;-68
2022/12/23 06:26:41;;;;;;;70.43;14.93;;;7.60;99.90;;;;;;5093074;28;20430;-69
2022/12/23 06:29:07;;;;;;;115.47;15.52;;;7.50;99.90;;;;;;5091703;28;20051;-68
2022/12/23 06:31:32;;;;;;;340.77;18.80;;;7.50;99.90;;;;;;5092528;28;20447;-68
2022/12/23 06:33:58;;;;;;;60.05;14.73;;;7.50;99.90;;;;;;5090459;28;20071;-69
2022/12/23 06:36:24;;;;;;;48.90;14.70;;;7.50;99.90;;;;;;5074481;28;20464;-69
2022/12/23 06:38:49;;;;;;;91.03;15.48;;;7.50;99.90;;;;;;5091692;28;20050;-69
2022/12/23 06:41:15;;;;;;;144.80;15.80;;;7.50;99.90;;;;;;5091364;28;20036;-69
2022/12/23 06:43:41;;;;;;;53.08;15.02;;;7.50;99.90;;;;;;5090148;28;20044;-69
2022/12/23 06:46:06;;;;;;;57.28;14.73;;;7.50;99.90;;;;;;5092376;27;20035;-69
2022/12/23 06:48:32;;;;;;;237.32;17.73;;;7.60;99.90;;;;;;5090974;28;20182;-68
2022/12/23 06:50:58;;;;;;;304.48;18.52;;;7.50;99.90;;;;;;5090607;28;20039;-68
2022/12/23 06:53:24;;;;;;;44.35;14.52;;;7.50;99.90;;;;;;5092943;28;20039;-68
2022/12/23 06:55:49;;;;;;;315.02;18.20;;;7.40;99.90;;;;;;5093076;28;20446;-69
2022/12/23 06:58:15;;;;;;;95.47;14.48;;;7.40;99.90;;;;;;5093336;28;20046;-69
2022/12/23 07:00:41;;;;;;;213.45;17.10;;;7.40;99.90;;;;;;5093069;28;20039;-69
2022/12/23 07:03:06;;;;;;;46.50;14.35;;;7.40;99.90;;;;;;5075245;28;20068;-69
2022/12/23 07:05:34;;;;;;;39.65;13.95;;;7.40;99.90;;;;;;5092367;28;20039;-69
2022/12/23 07:08:00;;;;;;;62.15;14.00;;;7.40;99.90;;;;;;5126891;27;20482;-69
2022/12/23 07:10:25;;;;;;;44.35;13.95;;;7.40;99.90;;;;;;5092079;28;20040;-69
2022/12/23 07:12:51;;;;;;;37.72;12.68;;;7.40;99.90;;;;;;5092256;28;20023;-69
2022/12/23 07:15:17;;;;;;;25.58;12.45;;;7.40;99.90;;;;;;5093105;28;20212;-69
2022/12/23 07:17:42;;;;;;;28.23;12.77;;;7.50;99.90;;;;;;5091091;27;20039;-69
2022/12/23 07:20:09;;;;;;;27.35;12.23;;;7.50;99.90;;;;;;5092695;28;20074;-69
2022/12/23 07:22:34;;;;;;;49.72;12.70;;;7.50;99.90;;;;;;5075500;28;20054;-68
2022/12/23 07:25:00;;;;;;;27.02;12.82;;;7.50;99.90;;;;;;5073102;28;20490;-69
2022/12/23 07:27:26;;;;;;;29.08;12.65;;;7.50;99.90;;;;;;5091546;28;20044;-69
2022/12/23 07:29:51;;;;;;;31.80;11.88;;;7.50;99.90;;;;;;5085197;28;20096;-69
2022/12/23 07:32:17;;;;;;;30.85;12.38;;;7.60;99.90;;;;;;5092395;28;20046;-69
2022/12/23 07:34:43;;;;;;;24.52;12.73;;;7.60;99.90;;;;;;5122636;27;20044;-68
2022/12/23 07:37:08;;;;;;;29.25;12.25;;;7.60;99.90;;;;;;5092446;28;20054;-69
2022/12/23 07:39:34;;;;;;;27.55;12.05;;;7.50;99.90;;;;;;5091293;28;20032;-69
2022/12/23 07:41:59;;;;;;;25.42;12.52;;;7.60;99.90;;;;;;5092318;28;20051;-68
2022/12/23 07:44:25;;;;;;;33.38;13.50;;;7.60;99.90;;;;;;5092662;28;20035;-69
2022/12/23 07:46:51;;;;;;;58.92;12.95;;;7.60;99.90;;;;;;5092263;28;20039;-70
2022/12/23 07:49:16;;;;;;;32.95;13.18;;;7.60;99.90;;;;;;5091960;27;20035;-68
2022/12/23 07:51:42;;;;;;;42.60;13.50;;;7.60;99.90;;;;;;5091435;28;20434;-68
2022/12/23 07:54:10;;;;;;;34.90;12.38;;;7.60;99.90;;;;;;5092173;28;20069;-69
2022/12/23 07:56:36;;;;;;;36.97;13.05;;;7.60;99.90;;;;;;5092432;28;20036;-69
2022/12/23 07:59:01;;;;;;;55.25;12.38;;;7.60;99.90;;;;;;5091878;28;21003;-69
2022/12/23 08:01:27;;;;;;;30.05;13.27;;;7.60;99.90;;;;;;5092465;28;20081;-69
2022/12/23 08:04:07;;;;;;;37.00;12.85;;;7.60;99.90;;;;;;5092111;28;20088;-69
2022/12/23 08:06:36;;;;;;;29.73;12.65;;;7.60;99.90;;;;;;5092600;28;20050;-69
2022/12/23 08:09:02;;;;;;;32.85;11.90;;;7.60;99.90;;;;;;5119801;27;20554;-69
2022/12/23 08:11:28;;;;;;;43.63;13.07;;;7.60;99.90;;;;;;5092123;28;20048;-69
2022/12/23 08:13:53;;;;;;;44.17;12.73;;;7.60;99.90;;;;;;5073096;28;20081;-69
2022/12/23 08:16:19;;;;;;;22.83;12.20;;;7.60;99.90;;;;;;5091881;28;20039;-69
2022/12/23 08:18:45;;;;;;;27.95;13.10;;;7.60;99.90;;;;;;5090748;28;20394;-70
2022/12/23 08:21:16;;;;;;;33.10;14.10;;;7.60;99.90;;;;;;5090296;28;20412;-70
2022/12/23 08:23:42;;;;;;;24.90;12.65;;;7.70;99.90;;;;;;5090626;28;20036;-70
2022/12/23 08:26:11;;;;;;;37.85;14.35;;;7.60;99.90;;;;;;5091589;28;20047;-70
2022/12/23 08:28:38;;;;;;;31.27;14.00;;;7.70;99.90;;;;;;5091400;28;20048;-69
2022/12/23 08:31:05;;;;;;;27.85;14.07;;;7.70;99.90;;;;;;5075098;28;20494;-70
2022/12/23 08:33:31;;;;;;;28.85;13.02;;;7.70;99.90;;;;;;5091672;28;20136;-70
2022/12/23 08:35:56;;;;;;;22.58;12.80;;;7.70;99.90;;;;;;5091767;28;20035;-70
2022/12/23 08:38:22;;;;;;;18.75;12.02;;;7.70;99.90;;;;;;5091447;28;20405;-70
2022/12/23 08:40:48;;;;;;;24.52;13.20;;;7.70;99.90;;;;;;5091310;28;20130;-69
2022/12/23 08:43:13;;;;;;;27.58;13.95;;;7.70;99.90;;;;;;5091833;28;20130;-69
2022/12/23 08:45:39;;;;;;;23.15;12.82;;;7.80;99.90;;;;;;5091729;28;21912;-69
2022/12/23 08:48:05;;;;;;;24.42;12.45;;;7.80;99.90;;;;;;5091764;28;20070;-69
2022/12/23 08:50:36;;;;;;;27.00;12.65;;;7.80;99.90;;;;;;5125421;28;20039;-69
2022/12/23 08:53:03;;;;;;;19.98;11.63;;;7.80;99.90;;;;;;5091968;28;20053;-69
2022/12/23 08:55:28;;;;;;;19.83;11.50;;;7.80;99.90;;;;;;5091197;28;20063;-69
2022/12/23 08:57:54;;;;;;;20.48;11.25;;;7.80;99.90;;;;;;5074728;28;20081;-69
2022/12/23 09:00:20;;;;;;;19.45;11.52;;;7.80;99.90;;;;;;5126099;27;20694;-69
2022/12/23 09:02:45;;;;;;;18.58;11.30;;;7.80;99.90;;;;;;5091935;28;20489;-69
2022/12/23 09:05:11;;;;;;;18.23;11.82;;;7.80;99.90;;;;;;5091622;28;20039;-69
2022/12/23 09:07:37;;;;;;;21.02;12.20;;;7.80;99.90;;;;;;5074217;28;20052;-69
2022/12/23 09:10:03;;;;;;;19.90;12.50;;;7.80;99.90;;;;;;5092196;28;20032;-69
2022/12/23 09:12:28;;;;;;;32.70;12.85;;;7.80;99.90;;;;;;5090530;28;20494;-69
2022/12/23 09:14:54;;;;;;;22.80;12.75;;;7.80;99.90;;;;;;5091334;28;20032;-68
2022/12/23 09:17:20;;;;;;;23.00;11.93;;;7.90;99.90;;;;;;5091599;28;20028;-69
2022/12/23 09:19:45;;;;;;;24.48;11.63;;;7.90;99.90;;;;;;5091412;28;20786;-69
2022/12/23 09:22:12;;;;;;;20.98;12.40;;;7.90;99.90;;;;;;5091782;28;20063;-69
2022/12/23 09:24:38;;;;;;;20.73;11.75;;;7.90;99.90;;;;;;5125598;28;20116;-69
2022/12/23 09:27:03;;;;;;;19.75;13.02;;;7.90;99.90;;;;;;5091916;28;20470;-69
2022/12/23 09:29:29;;;;;;;18.92;11.23;;;7.90;99.90;;;;;;5078167;28;20494;-69
2022/12/23 09:31:55;;;;;;;16.13;10.30;;;7.90;99.90;;;;;;5128423;27;20094;-68
2022/12/23 09:34:20;;;;;;;16.85;11.25;;;7.90;99.90;;;;;;5094844;28;20040;-69
2022/12/23 09:36:46;;;;;;;18.92;10.98;;;7.90;99.90;;;;;;5095315;28;20023;-69
2022/12/23 09:39:11;;;;;;;18.88;11.65;;;7.90;99.90;;;;;;5095132;28;20053;-69
2022/12/23 09:42:04;;;;;;;18.63;11.90;;;7.90;99.90;;;;;;5077613;28;20130;-69
2022/12/23 09:44:43;;;;;;;18.35;11.50;;;7.90;99.90;;;;;;5095555;28;20044;-69
2022/12/23 09:47:14;;;;;;;17.25;11.10;;;7.90;99.90;;;;;;5094786;28;20059;-69
2022/12/23 09:49:49;;;;;;;17.60;11.85;;;7.90;99.90;;;;;;5094804;28;20043;-69
2022/12/23 09:52:22;;;;;;;17.50;11.95;;;7.90;99.90;;;;;;5094953;28;20428;-70
2022/12/23 09:54:52;;;;;;;19.20;12.60;;;7.90;99.90;;;;;;5094879;28;20043;-70
2022/12/23 09:57:38;;;;;;;18.05;11.07;;;7.90;99.90;;;;;;5128972;27;20042;-69
2022/12/23 10:00:06;;;;;;;14.40;9.10;;;7.90;99.90;;;;;;5091737;28;20039;-69
2022/12/23 10:02:41;;;;;;;15.13;10.30;;;7.90;99.90;;;;;;5074440;28;20036;-69
2022/12/23 10:05:47;;;;;;;17.83;10.45;;;7.80;99.90;;;;;;5093732;28;20056;-69
2022/12/23 10:08:40;;;;;;;16.17;10.65;;;7.80;99.90;;;;;;5093620;28;20106;-70
2022/12/23 10:11:17;;;;;;;15.40;10.18;;;7.80;99.90;;;;;;5033053;28;20424;-69
2022/12/23 10:14:13;;;;;;;16.05;9.88;;;7.80;99.90;;;;;;5033004;28;20056;-68
2022/12/23 10:16:43;;;;;;;16.52;10.02;;;7.80;99.90;;;;;;5049763;28;20407;-70
2022/12/23 10:19:27;;;;;;;17.13;10.65;;;7.80;99.90;;;;;;5031399;28;20084;-69
2022/12/23 10:22:08;;;;;;;16.13;10.23;;;7.90;99.90;;;;;;5032104;28;20087;-70
2022/12/23 10:24:41;;;;;;;14.48;9.57;;;7.90;99.90;;;;;;5049611;28;20108;-70
2022/12/23 10:27:36;;;;;;;14.23;10.00;;;8.00;99.90;;;;;;5032286;28;20059;-70
2022/12/23 10:30:11;;;;;;;15.75;9.80;;;8.10;99.90;;;;;;5029722;28;20136;-70
2022/12/23 10:33:04;;;;;;;17.52;10.32;;;8.10;99.90;;;;;;5030929;28;20045;-70
2022/12/23 10:35:35;;;;;;;;;;;8.10;99.90;;;;;;5032322;28;20037;-70
2022/12/23 10:38:07;;;;;;;14.50;9.52;;;8.10;99.90;;;;;;5031917;28;19916;-70
2022/12/23 10:40:37;;;;;;;14.52;9.38;;;8.10;99.90;;;;;;5030032;28;20100;-70
2022/12/23 10:43:25;;;;;;;14.90;9.30;;;8.10;99.90;;;;;;5032790;28;20041;-70
2022/12/23 10:46:16;;;;;;;15.88;9.65;;;8.10;99.90;;;;;;5032767;28;20049;-71
2022/12/23 10:48:51;;;;;;;14.18;8.98;;;8.20;99.90;;;;;;5079773;28;20043;-70
2022/12/23 10:51:21;;;;;;;14.23;9.35;;;8.20;99.90;;;;;;5109228;28;20040;-70
2022/12/23 10:53:52;;;;;;;18.45;9.82;;;8.20;99.90;;;;;;5128089;27;20447;-70
2022/12/23 10:56:19;;;;;;;15.98;9.73;;;8.20;99.90;;;;;;5093644;28;20110;-70
2022/12/23 10:58:50;;;;;;;13.98;9.07;;;8.10;99.90;;;;;;5093775;28;20401;-70
2022/12/23 11:01:17;;;;;;;15.57;9.38;;;8.10;99.90;;;;;;5127398;27;20147;-70
2022/12/23 11:04:08;;;;;;;15.25;9.18;;;8.20;99.90;;;;;;5123999;27;20122;-70
2022/12/23 11:06:38;;;;;;;16.33;9.43;;;8.20;99.90;;;;;;5093260;28;20074;-70
2022/12/23 11:09:05;;;;;;;12.32;8.07;;;8.20;99.90;;;;;;5092743;28;20798;-70
2022/12/23 11:11:52;;;;;;;14.75;9.00;;;8.20;99.90;;;;;;5127124;27;20474;-70
2022/12/23 11:14:31;;;;;;;13.63;8.45;;;8.20;99.90;;;;;;5093185;28;20031;-70
2022/12/23 11:16:57;;;;;;;14.07;8.55;;;8.20;99.90;;;;;;5093047;28;20095;-70
2022/12/23 11:19:23;;;;;;;15.15;10.05;;;8.20;99.90;;;;;;5091247;28;20043;-70
2022/12/23 11:21:57;;;;;;;13.90;8.88;;;8.20;99.90;;;;;;5125757;27;20062;-70
2022/12/23 11:24:25;;;;;;;16.67;10.07;;;8.20;99.90;;;;;;5092112;28;20043;-70
2022/12/23 11:27:14;;;;;;;16.13;10.40;;;8.20;99.90;;;;;;5092520;28;20047;-70
2022/12/23 11:29:46;;;;;;;16.92;10.20;;;8.20;99.90;;;;;;5092407;28;20038;-70
2022/12/23 11:32:27;;;;;;;15.35;9.93;;;8.20;99.90;;;;;;5091884;28;20060;-69
2022/12/23 11:34:54;;;;;;;18.88;10.70;;;8.20;99.90;;;;;;5091689;27;20048;-70
2022/12/23 11:37:39;;;;;;;17.70;9.75;;;8.20;99.90;;;;;;5125075;27;20386;-70
2022/12/23 11:40:24;;;;;;;16.40;10.38;;;8.10;99.90;;;;;;5076586;28;20075;-70
2022/12/23 11:42:55;;;;;;;17.15;9.52;;;8.20;99.90;;;;;;5092680;28;20089;-70
2022/12/23 11:45:24;;;;;;;21.23;13.95;;;8.20;99.90;;;;;;5126893;27;20024;-70
2022/12/23 11:47:50;;;;;;;15.57;10.38;;;8.10;99.90;;;;;;5092517;28;20075;-70
2022/12/23 11:50:19;;;;;;;17.95;11.10;;;8.10;99.90;;;;;;5090359;27;20073;-70
2022/12/23 11:52:54;;;;;;;18.80;11.85;;;8.10;99.90;;;;;;5089905;27;20052;-70
2022/12/23 11:55:31;;;;;;;26.42;17.85;;;8.10;99.90;;;;;;5093185;28;20051;-70
2022/12/23 11:57:59;;;;;;;25.88;17.52;;;8.10;99.90;;;;;;5092051;28;20036;-70
2022/12/23 12:00:41;;;;;;;18.77;10.23;;;8.10;99.90;;;;;;5126486;27;20557;-70
2022/12/23 12:03:16;;;;;;;17.45;10.07;;;8.10;99.90;;;;;;5125646;27;20062;-70
2022/12/23 12:05:51;;;;;;;19.73;9.55;;;8.10;99.90;;;;;;5092177;28;20039;-70
2022/12/23 12:08:26;;;;;;;16.42;9.95;;;8.10;99.90;;;;;;5091685;28;20101;-70
2022/12/23 12:10:59;;;;;;;17.08;9.68;;;8.10;99.90;;;;;;5124825;27;20031;-69
2022/12/23 12:13:32;;;;;;;18.35;10.15;;;8.10;99.90;;;;;;5125080;27;20083;-70
2022/12/23 12:16:03;;;;;;;19.35;10.85;;;8.10;99.90;;;;;;5092319;28;20031;-70
2022/12/23 12:18:30;;;;;;;18.48;9.82;;;8.10;99.90;;;;;;5092186;28;20066;-69
2022/12/23 12:21:02;;;;;;;18.67;10.75;;;8.10;99.90;;;;;;5092189;28;20044;-70
2022/12/23 12:23:54;;;;;;;17.83;10.07;;;8.10;99.90;;;;;;5074285;28;20055;-70
2022/12/23 12:26:28;;;;;;;19.97;10.77;;;8.00;99.90;;;;;;5009974;28;20049;-69
2022/12/23 12:29:19;;;;;;;17.90;10.10;;;8.00;99.90;;;;;;5010494;28;20049;-69
2022/12/23 12:31:51;;;;;;;19.77;10.95;;;8.00;99.90;;;;;;5010512;28;20099;-70
2022/12/23 12:34:34;;;;;;;19.53;9.93;;;8.00;99.90;;;;;;5010852;28;20037;-70
2022/12/23 12:37:52;;;;;;;21.05;10.38;;;8.00;99.90;;;;;;5026809;28;20057;-71
2022/12/23 12:40:39;;;;;;;21.67;10.75;;;8.00;99.90;;;;;;4987967;28;20426;-70
2022/12/23 12:43:17;;;;;;;19.27;10.38;;;8.00;99.90;;;;;;5003400;28;20077;-70
2022/12/23 12:45:45;;;;;;;19.77;10.60;;;8.00;99.90;;;;;;5002847;28;20145;-70
2022/12/23 12:48:45;;;;;;;19.15;10.30;;;8.00;99.90;;;;;;5003903;28;20559;-71
2022/12/23 12:51:32;;;;;;;19.75;10.07;;;8.00;99.90;;;;;;5004149;28;20072;-70
2022/12/23 12:54:13;;;;;;;21.45;10.45;;;8.10;99.90;;;;;;4999493;28;20115;-70
2022/12/23 12:57:02;;;;;;;18.63;9.48;;;8.10;99.90;;;;;;5002046;28;20057;-70
2022/12/23 12:59:32;;;;;;;19.23;9.52;;;8.10;99.90;;;;;;5003650;28;20050;-70
2022/12/23 13:02:15;;;;;;;16.13;9.73;;;8.10;99.90;;;;;;5003435;28;20054;-71
2022/12/23 13:05:10;;;;;;;18.98;10.45;;;8.10;99.90;;;;;;5032515;28;20056;-70
2022/12/23 13:07:45;;;;;;;18.77;10.40;;;8.10;99.90;;;;;;5050716;28;20040;-70
2022/12/23 13:10:35;;;;;;;18.50;10.75;;;8.10;99.90;;;;;;5032041;28;20056;-70
2022/12/23 13:13:09;;;;;;;20.23;10.20;;;8.10;99.90;;;;;;5032755;28;20112;-70
2022/12/23 13:16:02;;;;;;;17.77;9.80;;;8.10;99.90;;;;;;5073663;28;20039;-70
2022/12/23 13:19:04;;;;;;;21.50;10.93;;;8.20;99.90;;;;;;5111232;28;20047;-67
2022/12/23 13:21:44;;;;;;;20.60;10.15;;;8.20;99.90;;;;;;5078729;28;20043;-69
2022/12/23 13:24:25;;;;;;;21.90;10.90;;;8.20;99.90;;;;;;5126954;27;20123;-70
2022/12/23 13:27:04;;;;;;;19.92;10.35;;;8.20;99.90;;;;;;5093434;27;20100;-70